Time;durP1;ratioP1;P1;durP2;ratioP2;P2;SDS_P1;SDS_P2;PMS_P1;PMS_P2;Temp;Humidity;BMP_temperature;BMP_pressure;BME280_temperature;BME280_humidity;BME280_pressure;Samples;Min_cycle;Max_cycle;Signal;HPM_P1;HPM_P2
2023/04/12 00:01:06;;;;;;;;;;;;;;;1.83;95.47;101122.41;5062644;28;19975;-72
2023/04/12 00:03:33;;;;;;;;;;;;;;;1.70;95.37;101116.31;5047387;28;20047;-72
2023/04/12 00:06:02;;;;;;;;;;;;;;;1.77;95.39;101114.47;5052554;28;20028;-75
2023/04/12 00:08:31;;;;;;;;;;;;;;;1.67;95.59;101120.16;5040213;28;20046;-73
2023/04/12 00:10:57;;;;;;;;;;;;;;;1.70;95.47;101119.75;5037769;28;19960;-72
2023/04/12 00:13:23;;;;;;;;;;;;;;;1.99;95.38;101109.81;5046910;28;19996;-73
2023/04/12 00:15:52;;;;;;;;;;;;;;;1.79;95.15;101107.97;5049417;28;19989;-72
2023/04/12 00:18:18;;;;;;;;;;;;;;;1.84;95.23;101099.47;5066837;28;19941;-72
2023/04/12 00:20:44;;;;;;;;;;;;;;;1.78;95.42;101097.63;5040272;28;19957;-72
2023/04/12 00:23:11;;;;;;;;;;;;;;;1.68;95.29;101097.19;5047375;28;19967;-73
2023/04/12 00:25:38;;;;;;;;;;;;;;;1.68;95.24;101092.72;5032451;28;20027;-72
2023/04/12 00:28:05;;;;;;;;;;;;;;;1.61;95.34;101084.00;5043080;28;20394;-72
2023/04/12 00:30:31;;;;;;;;;;;;;;;1.61;95.47;101084.00;5041004;28;19935;-72
2023/04/12 00:32:57;;;;;;;;;;;;;;;1.59;95.10;101088.66;5039579;28;20336;-72
2023/04/12 00:35:25;;;;;;;;;;;;;;;1.48;95.24;101082.16;5067789;28;19937;-72
2023/04/12 00:37:50;;;;;;;;;;;;;;;1.42;95.39;101082.94;5036191;28;19936;-73
2023/04/12 00:40:15;;;;;;;;;;;;;;;1.25;94.99;101085.16;5060065;28;19964;-71
2023/04/12 00:42:41;;;;;;;;;;;;;;;1.44;95.32;101080.13;5044028;28;19944;-72
2023/04/12 00:45:07;;;;;;;;;;;;;;;1.27;95.13;101072.56;5030699;28;19952;-72
2023/04/12 00:47:35;;;;;;;;;;;;;;;1.21;95.18;101070.72;5048594;28;19970;-72
2023/04/12 00:50:08;;;;;;;;;;;;;;;1.21;95.17;101065.44;5028794;28;19946;-72
2023/04/12 00:52:34;;;;;;;;;;;;;;;1.07;95.02;101077.00;5022504;28;19937;-72
2023/04/12 00:55:01;;;;;;;;;;;;;;;1.31;95.18;101062.44;5046157;28;19951;-71
2023/04/12 00:57:33;;;;;;;;;;;;;;;1.36;95.09;101049.47;5055567;28;19985;-73
2023/04/12 00:59:59;;;;;;;;;;;;;;;1.49;94.69;101051.28;5045092;28;19968;-72
2023/04/12 01:02:25;;;;;;;;;;;;;;;1.58;94.34;101042.16;5042104;28;19942;-72
2023/04/12 01:04:52;;;;;;;;;;;;;;;1.60;94.08;101042.78;5048219;28;19948;-73
2023/04/12 01:07:24;;;;;;;;;;;;;;;1.57;94.07;101033.44;5044405;28;19946;-70
2023/04/12 01:09:56;;;;;;;;;;;;;;;1.65;94.09;101027.13;5064260;28;19933;-71
2023/04/12 01:12:41;;;;;;;;;;;;;;;1.65;93.87;101021.84;5072616;28;19948;-71
2023/04/12 01:15:12;;;;;;;;;;;;;;;1.74;93.76;101017.19;5072080;28;20472;-71
2023/04/12 01:17:45;;;;;;;;;;;;;;;1.82;93.45;101012.47;5040369;28;20683;-71
2023/04/12 01:20:17;;;;;;;;;;;;;;;1.81;92.91;101005.59;5064635;28;19988;-71
2023/04/12 01:22:54;;;;;;;;;;;;;;;1.78;92.79;101003.38;5079998;28;19941;-71
2023/04/12 01:25:27;;;;;;;;;;;;;;;1.78;92.83;101003.38;5030115;28;19945;-70
2023/04/12 01:27:56;;;;;;;;;;;;;;;1.68;92.87;101005.59;5046113;28;19974;-71
2023/04/12 01:30:25;;;;;;;;;;;;;;;1.66;93.07;100998.91;5064344;28;19947;-70
2023/04/12 01:32:55;;;;;;;;;;;;;;;1.63;92.82;100995.66;5063252;28;19937;-73
2023/04/12 01:35:23;;;;;;;;;;;;;;;1.60;92.75;100995.25;5049595;28;19951;-71
2023/04/12 01:37:49;;;;;;;;;;;;;;;1.56;93.23;100992.22;5066099;28;19938;-71
2023/04/12 01:40:16;;;;;;;;;;;;;;;1.49;93.41;100991.41;5065614;28;19960;-72
2023/04/12 01:42:45;;;;;;;;;;;;;;;1.48;93.22;100984.47;5051862;28;19930;-72
2023/04/12 01:45:11;;;;;;;;;;;;;;;1.51;93.28;100989.38;5057772;28;19931;-72
2023/04/12 01:47:37;;;;;;;;;;;;;;;1.52;93.31;100979.63;5067638;28;19942;-72
2023/04/12 01:50:03;;;;;;;;;;;;;;;1.63;92.83;100976.38;5050682;28;19959;-72
2023/04/12 01:52:31;;;;;;;;;;;;;;;1.61;92.49;100973.13;5065947;28;19964;-71
2023/04/12 01:55:00;;;;;;;;;;;;;;;1.64;92.43;100968.25;5040841;28;19961;-72
2023/04/12 01:57:26;;;;;;;;;;;;;;;1.61;92.31;100970.47;5072676;28;19935;-72
2023/04/12 01:59:52;;;;;;;;;;;;;;;1.59;92.44;100965.41;5076228;28;19966;-72
2023/04/12 02:02:20;;;;;;;;;;;;;;;1.55;92.16;100964.19;5059509;28;19959;-71
2023/04/12 02:04:46;;;;;;;;;;;;;;;1.58;92.14;100955.06;5043621;28;19955;-71
2023/04/12 02:07:14;;;;;;;;;;;;;;;1.63;91.88;100947.34;5034974;28;19959;-72
2023/04/12 02:09:40;;;;;;;;;;;;;;;1.56;91.90;100951.81;5047490;28;20025;-72
2023/04/12 02:12:06;;;;;;;;;;;;;;;1.57;91.75;100941.06;5055009;28;20020;-72
2023/04/12 02:14:32;;;;;;;;;;;;;;;1.54;92.01;100940.63;5044690;28;20011;-72
2023/04/12 02:16:58;;;;;;;;;;;;;;;1.51;92.02;100941.06;5059876;28;20545;-72
2023/04/12 02:19:24;;;;;;;;;;;;;;;1.53;92.16;100936.38;5050704;28;19946;-72
2023/04/12 02:21:51;;;;;;;;;;;;;;;1.52;92.14;100940.03;5063285;28;20427;-72
2023/04/12 02:24:16;;;;;;;;;;;;;;;1.54;91.88;100932.72;5066978;28;19994;-71
2023/04/12 02:26:43;;;;;;;;;;;;;;;1.54;91.84;100925.59;5073683;28;19939;-71
2023/04/12 02:29:09;;;;;;;;;;;;;;;1.60;91.21;100921.34;5047623;28;20048;-72
2023/04/12 02:31:37;;;;;;;;;;;;;;;1.55;91.60;100915.84;5025794;28;19973;-71
2023/04/12 02:34:04;;;;;;;;;;;;;;;1.54;91.42;100912.41;5034876;28;19959;-71
2023/04/12 02:36:30;;;;;;;;;;;;;;;1.54;91.54;100916.88;5059781;28;19945;-72
2023/04/12 02:38:55;;;;;;;;;;;;;;;1.57;91.44;100905.91;5061564;28;19935;-71
2023/04/12 02:41:22;;;;;;;;;;;;;;;1.50;91.34;100898.00;5036083;28;20013;-72
2023/04/12 02:43:48;;;;;;;;;;;;;;;1.52;91.09;100888.06;5065124;28;19946;-71
2023/04/12 02:46:15;;;;;;;;;;;;;;;1.55;91.11;100878.91;5054701;28;19944;-72
2023/04/12 02:48:46;;;;;;;;;;;;;;;1.58;90.68;100866.09;5051545;28;19980;-70
2023/04/12 02:51:15;;;;;;;;;;;;;;;1.55;90.73;100857.78;5048640;28;19939;-70
2023/04/12 02:53:42;;;;;;;;;;;;;;;1.57;90.71;100859.22;5057753;28;19962;-73
2023/04/12 02:56:17;;;;;;;;;;;;;;;1.53;90.68;100844.81;5043321;28;19942;-70
2023/04/12 02:58:46;;;;;;;;;;;;;;;1.59;90.47;100832.59;5066603;28;20443;-71
2023/04/12 03:01:19;;;;;;;;;;;;;;;1.67;89.82;100840.28;5048845;28;20007;-72
2023/04/12 03:04:12;;;;;;;;;;;;;;;1.70;89.73;100834.59;5042519;28;20032;-71
2023/04/12 03:06:51;;;;;;;;;;;;;;;1.71;90.07;100825.66;5051400;28;20344;-71
2023/04/12 03:09:20;;;;;;;;;;;;;;;1.80;89.71;100813.03;5047660;28;19983;-71
2023/04/12 03:11:46;;;;;;;;;;;;;;;1.84;89.30;100817.69;5045953;28;19939;-72
2023/04/12 03:14:12;;;;;;;;;;;;;;;1.83;89.39;100818.72;5049846;28;19962;-71
2023/04/12 03:16:39;;;;;;;;;;;;;;;1.77;89.88;100811.63;5053413;28;19959;-72
2023/04/12 03:19:09;;;;;;;;;;;;;;;1.68;90.51;100801.50;5065816;28;19943;-71
2023/04/12 03:21:36;;;;;;;;;;;;;;;1.71;90.26;100799.25;5071863;28;19957;-71
2023/04/12 03:24:03;;;;;;;;;;;;;;;1.83;89.68;100791.47;5033519;28;20005;-70
2023/04/12 03:26:30;;;;;;;;;;;;;;;1.92;89.64;100780.47;5042698;28;19934;-70
2023/04/12 03:28:59;;;;;;;;;;;;;;;1.96;89.43;100778.19;5052244;28;20295;-71
2023/04/12 03:31:30;;;;;;;;;;;;;;;1.89;89.60;100775.59;5052259;28;19927;-71
2023/04/12 03:34:02;;;;;;;;;;;;;;;1.96;88.93;100764.19;5056038;28;19958;-70
2023/04/12 03:36:28;;;;;;;;;;;;;;;1.98;88.56;100757.69;5045578;28;19930;-71
2023/04/12 03:39:01;;;;;;;;;;;;;;;1.92;88.63;100751.41;5047510;28;19969;-72
2023/04/12 03:41:28;;;;;;;;;;;;;;;1.91;88.61;100749.81;5046537;28;20000;-72
2023/04/12 03:43:54;;;;;;;;;;;;;;;1.86;88.70;100751.44;5070600;28;20035;-72
2023/04/12 03:46:20;;;;;;;;;;;;;;;1.79;89.17;100754.13;5067754;28;19935;-71
2023/04/12 03:48:53;;;;;;;;;;;;;;;1.86;88.58;100740.88;5051755;28;19928;-69
2023/04/12 03:51:25;;;;;;;;;;;;;;;1.81;88.85;100735.44;5065188;28;19951;-71
2023/04/12 03:53:54;;;;;;;;;;;;;;;1.85;88.71;100748.00;5048976;28;19950;-72
2023/04/12 03:56:23;;;;;;;;;;;;;;;1.80;89.17;100734.63;5028889;28;20443;-71
2023/04/12 03:58:52;;;;;;;;;;;;;;;1.86;88.93;100722.41;5038222;28;20031;-72
2023/04/12 04:01:20;;;;;;;;;;;;;;;1.86;88.65;100715.28;5043889;28;19952;-72
2023/04/12 04:03:45;;;;;;;;;;;;;;;1.89;89.00;100708.75;5050384;28;20046;-71
2023/04/12 04:06:37;;;;;;;;;;;;;;;1.96;88.45;100704.25;5057803;28;19972;-70
2023/04/12 04:09:03;;;;;;;;;;;;;;;1.91;88.52;100696.97;5060335;28;20547;-71
2023/04/12 04:11:34;;;;;;;;;;;;;;;1.96;88.30;100703.44;5072568;28;19936;-71
2023/04/12 04:14:04;;;;;;;;;;;;;;;1.91;88.56;100689.06;5055702;28;19949;-71
2023/04/12 04:16:30;;;;;;;;;;;;;;;1.90;88.75;100687.44;5082762;28;19932;-71
2023/04/12 04:18:56;;;;;;;;;;;;;;;1.95;88.43;100672.75;5048813;28;20290;-71
2023/04/12 04:21:23;;;;;;;;;;;;;;;2.02;88.01;100669.06;5070770;28;19963;-71
2023/04/12 04:23:53;;;;;;;;;;;;;;;2.03;87.69;100672.50;5046720;28;19950;-71
2023/04/12 04:26:32;;;;;;;;;;;;;;;2.14;87.11;100662.06;5067237;28;20378;-71
2023/04/12 04:29:01;;;;;;;;;;;;;;;2.17;86.71;100653.72;5064258;28;20051;-70
2023/04/12 04:31:36;;;;;;;;;;;;;;;2.19;86.86;100650.84;5059168;28;19970;-71
2023/04/12 04:34:04;;;;;;;;;;;;;;;2.21;86.26;100651.44;5034649;28;19946;-71
2023/04/12 04:36:32;;;;;;;;;;;;;;;2.15;86.78;100652.28;5035597;28;19937;-71
2023/04/12 04:38:57;;;;;;;;;;;;;;;2.17;86.72;100640.50;5059057;28;20030;-71
2023/04/12 04:41:38;;;;;;;;;;;;;;;2.16;86.79;100635.41;5064857;28;20373;-70
2023/04/12 04:44:10;;;;;;;;;;;;;;;2.28;86.45;100633.69;5053259;28;19952;-71
2023/04/12 04:46:41;;;;;;;;;;;;;;;2.24;86.49;100629.06;5059001;28;19937;-70
2023/04/12 04:49:08;;;;;;;;;;;;;;;2.14;86.85;100634.81;5060116;28;19937;-70
2023/04/12 04:51:33;;;;;;;;;;;;;;;2.14;87.04;100629.53;5055256;28;19944;-72
2023/04/12 04:54:01;;;;;;;;;;;;;;;2.18;86.95;100622.81;5058872;28;19949;-72
2023/04/12 04:56:27;;;;;;;;;;;;;;;2.16;86.59;100616.91;5065961;28;19938;-72
2023/04/12 04:58:53;;;;;;;;;;;;;;;2.31;85.81;100609.47;5065145;28;19937;-72
2023/04/12 05:01:24;;;;;;;;;;;;;;;2.24;85.93;100613.22;5046719;28;19947;-72
2023/04/12 05:03:51;;;;;;;;;;;;;;;2.21;86.25;100603.06;5069310;28;19960;-72
2023/04/12 05:06:19;;;;;;;;;;;;;;;2.22;86.30;100600.19;5052910;28;20004;-73
2023/04/12 05:08:45;;;;;;;;;;;;;;;2.26;85.65;100605.88;5053135;28;19941;-71
2023/04/12 05:11:14;;;;;;;;;;;;;;;2.10;86.81;100605.41;5050003;28;20418;-71
2023/04/12 05:13:40;;;;;;;;;;;;;;;2.05;87.12;100604.44;5038627;28;19956;-70
2023/04/12 05:16:06;;;;;;;;;;;;;;;2.05;86.76;100594.66;5060613;28;20339;-71
2023/04/12 05:18:40;;;;;;;;;;;;;;;2.13;85.95;100604.16;5062513;28;20033;-71
2023/04/12 05:21:08;;;;;;;;;;;;;;;2.16;86.13;100601.88;5049651;28;19950;-71
2023/04/12 05:23:35;;;;;;;;;;;;;;;2.23;85.65;100591.25;5050757;28;19955;-73
2023/04/12 05:26:00;;;;;;;;;;;;;;;2.30;85.71;100597.25;5061441;28;19937;-73
2023/04/12 05:28:26;;;;;;;;;;;;;;;2.29;85.77;100584.28;5055526;28;19937;-71
2023/04/12 05:30:51;;;;;;;;;;;;;;;2.36;85.30;100588.47;5052384;28;19945;-72
2023/04/12 05:33:21;;;;;;;;;;;;;;;2.47;84.98;100579.81;5047246;28;20684;-72
2023/04/12 05:35:47;;;;;;;;;;;;;;;2.54;84.59;100573.66;5057293;28;19939;-72
2023/04/12 05:38:13;;;;;;;;;;;;;;;2.60;84.38;100575.41;5037984;28;20026;-73
2023/04/12 05:40:38;;;;;;;;;;;;;;;2.73;83.07;100559.41;5063339;28;19958;-72
2023/04/12 05:43:11;;;;;;;;;;;;;;;2.79;83.09;100558.50;5042851;28;20741;-70
2023/04/12 05:45:36;;;;;;;;;;;;;;;2.86;82.74;100559.25;5052671;28;19934;-71
2023/04/12 05:48:02;;;;;;;;;;;;;;;3.00;82.16;100560.69;5069816;28;20028;-70
2023/04/12 05:50:28;;;;;;;;;;;;;;;3.08;81.75;100556.09;5069599;28;20478;-71
2023/04/12 05:52:54;;;;;;;;;;;;;;;3.17;81.74;100555.56;5061045;28;19993;-71
2023/04/12 05:55:25;;;;;;;;;;;;;;;3.22;81.68;100553.03;5044885;28;20028;-70
2023/04/12 05:58:09;;;;;;;;;;;;;;;3.34;81.57;100547.00;5062220;28;20029;-71
2023/04/12 06:00:35;;;;;;;;;;;;;;;3.41;81.65;100547.69;5059362;28;19945;-71
2023/04/12 06:03:03;;;;;;;;;;;;;;;3.58;79.97;100545.97;5046323;28;20468;-73
2023/04/12 06:05:29;;;;;;;;;;;;;;;3.67;79.88;100533.22;5046585;28;19932;-73
2023/04/12 06:07:55;;;;;;;;;;;;;;;3.75;80.06;100531.03;5063104;28;19986;-70
2023/04/12 06:10:21;;;;;;;;;;;;;;;3.85;79.30;100527.81;5046495;28;19942;-71
2023/04/12 06:12:50;;;;;;;;;;;;;;;4.03;78.90;100524.25;5048854;28;19955;-71
2023/04/12 06:15:18;;;;;;;;;;;;;;;4.10;77.31;100519.63;5060214;28;19965;-71
2023/04/12 06:17:45;;;;;;;;;;;;;;;4.25;77.86;100513.84;5069948;28;19957;-71
2023/04/12 06:20:13;;;;;;;;;;;;;;;4.39;76.15;100504.59;5052032;28;20317;-72
2023/04/12 06:22:39;;;;;;;;;;;;;;;4.56;75.22;100504.69;5049423;28;19999;-71
2023/04/12 06:25:05;;;;;;;;;;;;;;;4.62;76.21;100499.25;5056509;28;19947;-72
2023/04/12 06:27:31;;;;;;;;;;;;;;;4.76;75.68;100493.66;5065773;28;19955;-73
2023/04/12 06:29:57;;;;;;;;;;;;;;;4.88;74.64;100481.16;5044654;28;19955;-73
2023/04/12 06:32:23;;;;;;;;;;;;;;;5.12;74.72;100493.25;5064923;28;20383;-72
2023/04/12 06:34:49;;;;;;;;;;;;;;;5.05;75.18;100492.59;5065413;28;19947;-72
2023/04/12 06:37:15;;;;;;;;;;;;;;;5.24;73.49;100495.84;5050235;28;20680;-73
2023/04/12 06:39:41;;;;;;;;;;;;;;;5.32;75.46;100489.31;5061590;28;19971;-72
2023/04/12 06:42:06;;;;;;;;;;;;;;;5.47;73.14;100487.72;5066768;28;19972;-71
2023/04/12 06:44:35;;;;;;;;;;;;;;;5.58;73.81;100486.03;5050047;28;19953;-72
2023/04/12 06:47:00;;;;;;;;;;;;;;;5.67;72.82;100481.91;5051331;28;19957;-73
2023/04/12 06:49:26;;;;;;;;;;;;;;;5.85;72.99;100472.88;5051093;28;19939;-72
2023/04/12 06:51:51;;;;;;;;;;;;;;;6.06;72.97;100471.31;5044262;28;19940;-71
2023/04/12 06:54:17;;;;;;;;;;;;;;;6.34;71.38;100466.88;5063217;28;19996;-72
2023/04/12 06:56:42;;;;;;;;;;;;;;;6.53;72.33;100454.88;5034628;28;20317;-73
2023/04/12 06:59:08;;;;;;;;;;;;;;;6.56;69.41;100455.16;5039269;28;19945;-73
2023/04/12 07:01:34;;;;;;;;;;;;;;;6.60;69.08;100442.16;5060667;28;19956;-72
2023/04/12 07:03:59;;;;;;;;;;;;;;;6.92;68.79;100454.72;5064271;28;19968;-73
2023/04/12 07:06:26;;;;;;;;;;;;;;;7.04;68.84;100455.34;5062749;28;19959;-71
2023/04/12 07:08:52;;;;;;;;;;;;;;;7.12;67.12;100446.94;5086392;28;19943;-72
2023/04/12 07:11:18;;;;;;;;;;;;;;;7.16;66.33;100437.34;5047271;28;19932;-71
2023/04/12 07:13:43;;;;;;;;;;;;;;;7.10;67.34;100436.50;5064415;28;19981;-72
2023/04/12 07:16:09;;;;;;;;;;;;;;;7.07;66.87;100428.25;5062872;28;19974;-73
2023/04/12 07:18:35;;;;;;;;;;;;;;;7.01;65.99;100430.03;5053165;28;19942;-71
2023/04/12 07:21:01;;;;;;;;;;;;;;;7.19;67.39;100426.22;5065640;28;20427;-72
2023/04/12 07:23:26;;;;;;;;;;;;;;;7.15;66.77;100425.09;5066447;28;19985;-72
2023/04/12 07:25:52;;;;;;;;;;;;;;;7.21;65.79;100418.75;5059502;28;19941;-71
2023/04/12 07:28:18;;;;;;;;;;;;;;;7.20;65.37;100417.16;5053673;28;19945;-71
2023/04/12 07:30:44;;;;;;;;;;;;;;;7.29;64.78;100420.94;5047022;28;20460;-71
2023/04/12 07:33:09;;;;;;;;;;;;;;;7.38;65.92;100416.78;5057482;28;19952;-71
2023/04/12 07:35:35;;;;;;;;;;;;;;;7.44;65.46;100408.78;5079631;28;19943;-71
2023/04/12 07:38:01;;;;;;;;;;;;;;;7.41;65.70;100406.66;5061386;28;19938;-71
2023/04/12 07:40:26;;;;;;;;;;;;;;;7.39;66.00;100404.25;5058644;28;20066;-71
2023/04/12 07:42:52;;;;;;;;;;;;;;;7.50;65.98;100405.91;5054343;28;19944;-70
2023/04/12 07:45:18;;;;;;;;;;;;;;;7.54;65.37;100407.00;5054716;28;20021;-73
2023/04/12 07:47:44;;;;;;;;;;;;;;;7.66;64.16;100401.47;5047502;28;20033;-72
2023/04/12 07:50:09;;;;;;;;;;;;;;;7.65;63.19;100403.34;5049844;28;20118;-71
2023/04/12 07:52:35;;;;;;;;;;;;;;;7.69;64.12;100392.16;5054717;28;19942;-71
2023/04/12 07:55:00;;;;;;;;;;;;;;;7.68;64.78;100380.69;5064611;28;19975;-70
2023/04/12 07:57:26;;;;;;;;;;;;;;;7.70;62.71;100380.44;5065510;28;20277;-71
2023/04/12 07:59:51;;;;;;;;;;;;;;;7.80;64.28;100383.97;5071364;28;20401;-70
2023/04/12 08:02:26;;;;;;;;;;;;;;;7.81;64.28;100385.56;5057024;28;19959;-70
2023/04/12 08:04:52;;;;;;;;;;;;;;;7.78;63.27;100378.06;5073600;28;19957;-71
2023/04/12 08:07:18;;;;;;;;;;;;;;;7.88;63.64;100364.78;5059990;28;19962;-70
2023/04/12 08:09:44;;;;;;;;;;;;;;;8.03;63.16;100360.56;5071023;28;20032;-72
2023/04/12 08:12:10;;;;;;;;;;;;;;;8.05;61.81;100353.09;5055630;28;19935;-70
2023/04/12 08:14:35;;;;;;;;;;;;;;;8.03;60.37;100344.56;5062663;28;20005;-72
2023/04/12 08:17:01;;;;;;;;;;;;;;;7.92;61.88;100339.22;5068661;28;19985;-71
2023/04/12 08:19:27;;;;;;;;;;;;;;;7.90;62.22;100337.88;5082874;28;19927;-73
2023/04/12 08:21:52;;;;;;;;;;;;;;;7.89;63.23;100329.06;5055208;28;20051;-72
2023/04/12 08:24:18;;;;;;;;;;;;;;;7.89;61.73;100329.06;5071425;28;20430;-73
2023/04/12 08:26:44;;;;;;;;;;;;;;;8.00;61.28;100323.78;5051672;28;19935;-71
2023/04/12 08:29:11;;;;;;;;;;;;;;;7.84;61.65;100326.38;5065714;28;19946;-71
2023/04/12 08:31:36;;;;;;;;;;;;;;;7.84;62.07;100322.91;5067789;28;20000;-71
2023/04/12 08:34:02;;;;;;;;;;;;;;;7.81;62.47;100318.91;5066509;28;19961;-71
2023/04/12 08:36:27;;;;;;;;;;;;;;;7.79;61.33;100313.06;5066487;28;19936;-70
2023/04/12 08:38:57;;;;;;;;;;;;;;;7.75;62.22;100306.63;5065338;28;19951;-70
2023/04/12 08:41:22;;;;;;;;;;;;;;;7.78;61.78;100308.75;5058885;28;20084;-70
2023/04/12 08:43:49;;;;;;;;;;;;;;;7.75;62.30;100305.81;5050324;28;20095;-71
2023/04/12 08:46:15;;;;;;;;;;;;;;;7.84;62.41;100290.91;5077483;28;19930;-70
2023/04/12 08:48:43;;;;;;;;;;;;;;;7.80;62.21;100277.31;5062188;28;19933;-72
2023/04/12 08:51:10;;;;;;;;;;;;;;;7.88;62.67;100268.81;5065067;28;19944;-71
2023/04/12 08:53:35;;;;;;;;;;;;;;;8.02;61.44;100273.66;5060026;28;19948;-70
2023/04/12 08:56:01;;;;;;;;;;;;;;;8.00;61.87;100265.91;5051876;28;19939;-69
2023/04/12 08:58:28;;;;;;;;;;;;;;;7.98;61.48;100253.88;5059546;28;19938;-70
2023/04/12 09:00:54;;;;;;;;;;;;;;;8.01;62.11;100256.03;5070804;28;20441;-72
2023/04/12 09:03:20;;;;;;;;;;;;;;;8.07;61.81;100249.66;5081503;28;19951;-74
2023/04/12 09:05:46;;;;;;;;;;;;;;;8.12;61.56;100237.09;5065907;28;19935;-70
2023/04/12 09:08:12;;;;;;;;;;;;;;;8.22;62.32;100241.66;5081350;28;19938;-70
2023/04/12 09:10:38;;;;;;;;;;;;;;;8.43;61.33;100243.31;5087052;28;20010;-75
2023/04/12 09:13:06;;;;;;;;;;;;;;;8.52;61.34;100227.53;5049862;28;20633;-70
2023/04/12 09:15:32;;;;;;;;;;;;;;;8.65;60.14;100226.19;5057589;28;19928;-73
2023/04/12 09:18:09;;;;;;;;;;;;;;;8.95;60.16;100215.47;5051144;28;20002;-74
2023/04/12 09:20:35;;;;;;;;;;;;;;;8.98;59.45;100206.09;5062609;28;20380;-72
2023/04/12 09:23:01;;;;;;;;;;;;;;;9.02;58.77;100207.97;5064880;28;20472;-71
2023/04/12 09:25:37;;;;;;;;;;;;;;;9.07;59.44;100203.66;5065211;28;20374;-75
2023/04/12 09:28:03;;;;;;;;;;;;;;;9.00;59.31;100196.75;5045923;28;19939;-71
2023/04/12 09:30:29;;;;;;;;;;;;;;;9.09;59.23;100193.53;5083044;28;20030;-70
2023/04/12 09:32:54;;;;;;;;;;;;;;;9.18;59.28;100187.34;5063352;28;19960;-71
2023/04/12 09:35:33;;;;;;;;;;;;;;;9.28;59.64;100175.81;5068089;28;19972;-72
2023/04/12 09:38:06;;;;;;;;;;;;;;;9.39;57.97;100174.69;5069199;28;19931;-71
2023/04/12 09:40:35;;;;;;;;;;;;;;;9.31;57.38;100167.25;5037925;28;20566;-72
2023/04/12 09:43:02;;;;;;;;;;;;;;;9.32;58.01;100158.16;5060495;28;20558;-70
2023/04/12 09:45:32;;;;;;;;;;;;;;;9.33;58.23;100154.41;5029622;28;19933;-72
2023/04/12 09:47:58;;;;;;;;;;;;;;;9.51;59.16;100152.97;5063251;28;19982;-72
2023/04/12 09:50:27;;;;;;;;;;;;;;;9.36;58.75;100143.19;5030956;28;20617;-70
2023/04/12 09:52:54;;;;;;;;;;;;;;;9.58;60.26;100135.56;5056699;28;19936;-74
2023/04/12 09:55:21;;;;;;;;;;;;;;;9.54;59.05;100136.38;5072337;28;19981;-71
2023/04/12 09:57:49;;;;;;;;;;;;;;;9.67;59.24;100132.28;5064692;28;19959;-72
2023/04/12 10:00:17;;;;;;;;;;;;;;;9.60;58.23;100132.59;5038501;28;20149;-70
2023/04/12 10:02:47;;;;;;;;;;;;;;;9.46;59.23;100128.94;5028404;28;19944;-74
2023/04/12 10:05:16;;;;;;;;;;;;;;;9.54;59.74;100118.47;5045169;28;19963;-72
2023/04/12 10:07:43;;;;;;;;;;;;;;;9.56;59.58;100121.66;5071175;28;19932;-73
2023/04/12 10:10:11;;;;;;;;;;;;;;;9.61;59.58;100120.03;5046212;28;19941;-72
2023/04/12 10:12:37;;;;;;;;;;;;;;;9.51;58.29;100112.88;5051931;28;19947;-71
2023/04/12 10:15:11;;;;;;;;;;;;;;;9.57;58.33;100101.88;5065787;28;19980;-71
2023/04/12 10:17:42;;;;;;;;;;;;;;;9.63;59.77;100101.84;5075043;28;20303;-73
2023/04/12 10:20:08;;;;;;;;;;;;;;;9.73;58.95;100101.75;5059477;28;19960;-74
2023/04/12 10:22:35;;;;;;;;;;;;;;;10.00;59.42;100104.75;5049995;28;19931;-72
2023/04/12 10:25:01;;;;;;;;;;;;;;;10.01;57.68;100095.63;5043296;28;19949;-72
2023/04/12 10:27:26;;;;;;;;;;;;;;;10.06;57.50;100100.94;5054996;28;20091;-71
2023/04/12 10:30:12;;;;;;;;;;;;;;;10.12;57.51;100101.69;5049676;28;20028;-72
2023/04/12 10:32:38;;;;;;;;;;;;;;;10.21;57.48;100089.28;5056828;28;19932;-72
2023/04/12 10:35:07;;;;;;;;;;;;;;;10.12;57.57;100093.69;5042636;28;20080;-72
2023/04/12 10:37:51;;;;;;;;;;;;;;;10.30;58.98;100086.84;5058179;28;20017;-73
2023/04/12 10:40:18;;;;;;;;;;;;;;;10.19;57.99;100085.31;5073444;28;20380;-72
2023/04/12 10:42:43;;;;;;;;;;;;;;;10.04;58.83;100089.75;5061577;28;19945;-70
2023/04/12 10:45:15;;;;;;;;;;;;;;;10.00;60.50;100080.66;5063770;28;20446;-73
2023/04/12 10:47:46;;;;;;;;;;;;;;;9.90;59.64;100078.09;5071952;28;19940;-72
2023/04/12 10:50:25;;;;;;;;;;;;;;;10.03;60.99;100076.66;5062432;28;19934;-71
2023/04/12 10:53:20;;;;;;;;;;;;;;;9.96;60.35;100082.31;5055457;28;19943;-72
2023/04/12 10:55:48;;;;;;;;;;;;;;;9.76;62.54;100088.66;5051301;28;20016;-74
2023/04/12 10:58:38;;;;;;;;;;;;;;;9.61;61.81;100079.91;5066593;28;19931;-74
2023/04/12 11:01:04;;;;;;;;;;;;;;;9.35;64.10;100082.78;5041295;28;19953;-73
2023/04/12 11:03:30;;;;;;;;;;;;;;;9.20;63.85;100096.22;5072080;28;19950;-71
2023/04/12 11:05:57;;;;;;;;;;;;;;;9.13;66.51;100090.38;5038990;28;19952;-71
2023/04/12 11:08:55;;;;;;;;;;;;;;;8.93;67.45;100096.63;5043729;28;19944;-72
2023/04/12 11:11:21;;;;;;;;;;;;;;;8.83;67.96;100104.69;5045411;28;19947;-73
2023/04/12 11:13:47;;;;;;;;;;;;;;;8.62;68.94;100101.31;5053079;28;20042;-71
2023/04/12 11:16:13;;;;;;;;;;;;;;;8.32;71.60;100105.59;5066981;28;20041;-72
2023/04/12 11:18:38;;;;;;;;;;;;;;;8.25;71.16;100113.06;5051945;28;20295;-72
2023/04/12 11:21:04;;;;;;;;;;;;;;;8.07;74.30;100105.66;5066470;28;19955;-71
2023/04/12 11:23:31;;;;;;;;;;;;;;;7.96;75.20;100104.84;5066748;28;20255;-72
2023/04/12 11:25:58;;;;;;;;;;;;;;;7.96;76.96;100110.19;5061728;28;19958;-71
2023/04/12 11:28:24;;;;;;;;;;;;;;;7.95;75.38;100108.59;5058712;28;20001;-73
2023/04/12 11:30:54;;;;;;;;;;;;;;;7.97;76.92;100102.97;5048988;28;20041;-71
2023/04/12 11:33:36;;;;;;;;;;;;;;;7.90;78.04;100104.03;5040967;28;20344;-70
2023/04/12 11:36:03;;;;;;;;;;;;;;;7.89;77.44;100104.31;5062446;28;20392;-72
2023/04/12 11:38:29;;;;;;;;;;;;;;;7.79;78.38;100099.78;5060841;28;19993;-72
2023/04/12 11:40:55;;;;;;;;;;;;;;;7.72;78.53;100093.91;5058332;28;19955;-72
2023/04/12 11:43:21;;;;;;;;;;;;;;;7.70;80.05;100103.25;5043023;28;19959;-71
2023/04/12 11:45:46;;;;;;;;;;;;;;;7.60;80.54;100107.50;5065918;28;19988;-70
2023/04/12 11:48:12;;;;;;;;;;;;;;;7.60;81.33;100109.38;5057868;28;19967;-72
2023/04/12 11:50:39;;;;;;;;;;;;;;;7.65;81.77;100099.53;5056244;28;19932;-72
2023/04/12 11:53:08;;;;;;;;;;;;;;;7.67;82.50;100096.59;5065204;28;19935;-71
2023/04/12 11:55:33;;;;;;;;;;;;;;;7.65;83.04;100098.69;5044064;28;19964;-72
2023/04/12 11:57:59;;;;;;;;;;;;;;;7.69;82.42;100101.66;5028711;28;20330;-71
2023/04/12 12:00:26;;;;;;;;;;;;;;;7.72;81.68;100093.91;5058926;28;19951;-70
2023/04/12 12:02:52;;;;;;;;;;;;;;;7.71;82.08;100091.50;5043802;28;20336;-73
2023/04/12 12:05:18;;;;;;;;;;;;;;;7.66;82.53;100095.00;5046773;28;19937;-71
2023/04/12 12:07:44;;;;;;;;;;;;;;;7.62;83.49;100086.72;5050638;28;19969;-72
2023/04/12 12:10:10;;;;;;;;;;;;;;;7.69;83.95;100088.31;5058677;28;19980;-72
2023/04/12 12:12:35;;;;;;;;;;;;;;;7.62;84.29;100084.03;5066591;28;19932;-72
2023/04/12 12:15:01;;;;;;;;;;;;;;;7.65;83.87;100077.38;5067342;28;19948;-72
2023/04/12 12:17:26;;;;;;;;;;;;;;;7.83;84.27;100076.84;5063564;28;19945;-73
2023/04/12 12:19:55;;;;;;;;;;;;;;;7.79;84.53;100075.81;5054036;28;19943;-70
2023/04/12 12:22:21;;;;;;;;;;;;;;;7.81;84.96;100065.66;5066408;28;19978;-71
2023/04/12 12:24:51;;;;;;;;;;;;;;;7.79;85.53;100073.13;5051808;28;19982;-72
2023/04/12 12:27:18;;;;;;;;;;;;;;;7.76;85.24;100078.97;5050686;28;19931;-71
2023/04/12 12:29:47;;;;;;;;;;;;;;;7.81;85.90;100071.00;5069802;28;20029;-72
2023/04/12 12:32:13;;;;;;;;;;;;;;;7.85;85.99;100064.03;5078961;28;19947;-73
2023/04/12 12:34:53;;;;;;;;;;;;;;;7.85;84.96;100056.03;5038511;28;20321;-71
2023/04/12 12:37:28;;;;;;;;;;;;;;;7.75;85.20;100060.59;5064738;28;19931;-73
2023/04/12 12:40:12;;;;;;;;;;;;;;;7.75;84.58;100050.75;5046569;28;20366;-72
2023/04/12 12:42:45;;;;;;;;;;;;;;;7.79;85.48;100051.00;5050458;28;20068;-72
2023/04/12 12:45:11;;;;;;;;;;;;;;;7.66;84.48;100052.34;5061124;28;20048;-71
2023/04/12 12:47:44;;;;;;;;;;;;;;;7.63;85.20;100042.22;5057232;28;19980;-69
2023/04/12 12:50:13;;;;;;;;;;;;;;;7.67;87.02;100043.28;5067346;28;19940;-71